• Join FlightAware (Why Join?)
  • Login
  • US Flag 
12:35AM EDT


 

Airport Tracker/Info


-or-


 

Live Flight TrackerFlight Track Log ✈ TAM3766 ✈ 07-Sep-2013 ✈ SBGL / GIG - SBEG / MAO

Flight Track Log - Related Links

Times and Time Zones

All times are in EDT time to prevent confusion due to time zone crossing. See the TAM3766 flight status page for this flight to view local times or setup timezone preferences in your user account.

Time Position Orientation Groundspeed Altitude Reporting Facility
EDT Latitude Longitude Course Direction KTS MPH feet Rate Location/Type
12:33PM -18.7466 -47.0493 318° Northwest  Level Estimated
12:34PM -18.6593 -47.1281 319° Northwest  Level Estimated
12:35PM -18.5719 -47.2069 319° Northwest  Level Estimated
12:36PM -18.4846 -47.2856 319° Northwest  Level Estimated
12:37PM -18.3972 -47.3642 320° Northwest  Level Estimated
12:38PM -18.3097 -47.4427 320° Northwest  Level Estimated
12:39PM -18.2223 -47.5211 320° Northwest  Level Estimated
12:40PM -18.1348 -47.5995 320° Northwest  Level Estimated
12:41PM -18.0472 -47.6778 320° Northwest  Level Estimated
12:42PM -17.9597 -47.7560 320° Northwest  Level Estimated
12:43PM -17.8721 -47.8341 320° Northwest  Level Estimated
12:44PM -17.7845 -47.9122 320° Northwest  Level Estimated
12:45PM -17.6968 -47.9901 320° Northwest  Level Estimated
12:46PM -17.6091 -48.0680 320° Northwest  Level Estimated
12:47PM -17.5214 -48.1459 320° Northwest  Level Estimated
12:48PM -17.4337 -48.2236 320° Northwest  Level Estimated
12:49PM -17.3459 -48.3013 320° Northwest  Level Estimated
12:50PM -17.2581 -48.3789 320° Northwest  Level Estimated
12:51PM -17.1703 -48.4564 320° Northwest  Level Estimated
12:52PM -17.0824 -48.5338 320° Northwest  Level Estimated
12:53PM -16.9945 -48.6112 320° Northwest  Level Estimated
12:54PM -16.9066 -48.6885 320° Northwest  Level Estimated
12:55PM -16.8187 -48.7658 320° Northwest  Level Estimated
12:56PM -16.7307 -48.8429 320° Northwest  Level Estimated
12:57PM -16.6427 -48.9200 320° Northwest  Level Estimated
12:58PM -16.5546 -48.9970 320° Northwest  Level Estimated
12:59PM -16.4666 -49.0740 320° Northwest  Level Estimated
01:00PM -16.3785 -49.1508 320° Northwest  Level Estimated
01:01PM -16.2903 -49.2277 320° Northwest  Level Estimated
01:02PM -16.2022 -49.3044 320° Northwest  Level Estimated
01:03PM -16.1140 -49.3811 320° Northwest  Level Estimated
01:04PM -16.0258 -49.4577 320° Northwest  Level Estimated
01:05PM -15.9376 -49.5342 320° Northwest  Level Estimated
01:06PM -15.8493 -49.6107 320° Northwest  Level Estimated
01:07PM -15.7610 -49.6871 320° Northwest  Level Estimated
01:08PM -15.6727 -49.7634 320° Northwest  Level Estimated
01:09PM -15.5844 -49.8397 320° Northwest  Level Estimated
01:10PM -15.4960 -49.9159 320° Northwest  Level Estimated
01:11PM -15.4076 -49.9920 320° Northwest  Level Estimated
01:12PM -15.3192 -50.0681 320° Northwest  Level Estimated
01:13PM -15.2308 -50.1441 320° Northwest  Level Estimated
01:14PM -15.1423 -50.2200 320° Northwest  Level Estimated
01:15PM -15.0538 -50.2959 320° Northwest  Level Estimated
01:16PM -14.9653 -50.3717 320° Northwest  Level Estimated
01:17PM -14.8768 -50.4475 320° Northwest  Level Estimated
01:18PM -14.7882 -50.5232 320° Northwest  Level Estimated
01:19PM -14.6996 -50.5988 320° Northwest  Level Estimated
01:20PM -14.6110 -50.6744 320° Northwest  Level Estimated
01:21PM -14.5223 -50.7499 320° Northwest  Level Estimated
01:22PM -14.4337 -50.8253 321° Northwest  Level Estimated
01:23PM -14.3450 -50.9007 321° Northwest  Level Estimated
01:24PM -14.2563 -50.9761 321° Northwest  Level Estimated
01:25PM -14.1675 -51.0513 321° Northwest  Level Estimated
01:26PM -14.0788 -51.1265 321° Northwest  Level Estimated
01:27PM -13.9900 -51.2017 321° Northwest  Level Estimated
01:28PM -13.9012 -51.2768 321° Northwest  Level Estimated
01:29PM -13.8124 -51.3518 321° Northwest  Level Estimated
01:30PM -13.7235 -51.4268 321° Northwest  Level Estimated
01:31PM -13.6346 -51.5017 321° Northwest  Level Estimated
01:32PM -13.5457 -51.5766 321° Northwest  Level Estimated
01:33PM -13.4568 -51.6514 321° Northwest  Level Estimated
01:34PM -13.3679 -51.7261 321° Northwest  Level Estimated
01:35PM -13.2789 -51.8008 321° Northwest  Level Estimated
01:36PM -13.1899 -51.8755 321° Northwest  Level Estimated
01:37PM -13.1009 -51.9501 321° Northwest  Level Estimated
01:38PM -13.0119 -52.0246 321° Northwest  Level Estimated
01:39PM -12.9228 -52.0991 321° Northwest  Level Estimated
01:40PM -12.8337 -52.1735 321° Northwest  Level Estimated
01:41PM -12.7447 -52.2479 321° Northwest  Level Estimated
01:42PM -12.6556 -52.3222 321° Northwest  Level Estimated
01:43PM -12.5664 -52.3965 321° Northwest  Level Estimated
01:44PM -12.4773 -52.4707 321° Northwest  Level Estimated
01:45PM -12.3881 -52.5449 321° Northwest  Level Estimated
01:46PM -12.2989 -52.6190 321° Northwest  Level Estimated
01:47PM -12.2097 -52.6931 321° Northwest  Level Estimated
01:48PM -12.1205 -52.7671 321° Northwest  Level Estimated
01:49PM -12.0312 -52.8411 321° Northwest  Level Estimated
01:50PM -11.9419 -52.9150 321° Northwest  Level Estimated
01:51PM -11.8527 -52.9888 321° Northwest  Level Estimated
01:52PM -11.7633 -53.0627 321° Northwest  Level Estimated
01:53PM -11.6740 -53.1365 321° Northwest  Level Estimated
01:54PM -11.5847 -53.2102 321° Northwest  Level Estimated
01:55PM -11.4953 -53.2839 321° Northwest  Level Estimated
01:56PM -11.4059 -53.3575 321° Northwest  Level Estimated
01:57PM -11.3165 -53.4311 321° Northwest  Level Estimated
01:58PM -11.2271 -53.5046 321° Northwest  Level Estimated
01:59PM -11.1376 -53.5781 321° Northwest  Level Estimated
02:00PM -11.0482 -53.6516 321° Northwest  Level Estimated
02:01PM -10.9587 -53.7250 321° Northwest  Level Estimated
02:02PM -10.8692 -53.7983 321° Northwest  Level Estimated
02:03PM -10.7797 -53.8717 321° Northwest  Level Estimated
02:04PM -10.6902 -53.9449 321° Northwest  Level Estimated
02:05PM -10.6006 -54.0182 321° Northwest  Level Estimated
02:06PM -10.5111 -54.0914 321° Northwest  Level Estimated
02:07PM -10.4215 -54.1645 321° Northwest  Level Estimated
02:08PM -10.3319 -54.2376 321° Northwest  Level Estimated
02:09PM -10.2423 -54.3107 321° Northwest  Level Estimated
02:10PM -10.1526 -54.3837 321° Northwest  Level Estimated
02:11PM -10.0630 -54.4567 321° Northwest  Level Estimated
02:12PM -9.9733 -54.5296 321° Northwest  Level Estimated
02:13PM -9.8837 -54.6025 321° Northwest  Level Estimated
02:14PM -9.7940 -54.6754 321° Northwest  Level Estimated
02:15PM -9.7043 -54.7482 321° Northwest  Level Estimated
02:16PM -9.6145 -54.8210 321° Northwest  Level Estimated
02:17PM -9.5248 -54.8937 321° Northwest  Level Estimated
02:18PM -9.4351 -54.9664 321° Northwest  Level Estimated
02:19PM -9.3453 -55.0391 321° Northwest  Level Estimated
02:20PM -9.2555 -55.1117 321° Northwest  Level Estimated
02:21PM -9.1657 -55.1843 321° Northwest  Level Estimated
02:22PM -9.0759 -55.2569 321° Northwest  Level Estimated
02:23PM -8.9861 -55.3294 321° Northwest  Level Estimated
02:24PM -8.8962 -55.4019 321° Northwest  Level Estimated
02:25PM -8.8064 -55.4743 321° Northwest  Level Estimated
02:26PM -8.7165 -55.5467 321° Northwest  Level Estimated
02:27PM -8.6266 -55.6191 321° Northwest  Level Estimated
02:28PM -8.5367 -55.6914 321° Northwest  Level Estimated
02:29PM -8.4468 -55.7637 321° Northwest  Level Estimated
02:30PM -8.3569 -55.8360 322° Northwest  Level Estimated
02:31PM -8.2670 -55.9083 322° Northwest  Level Estimated
02:32PM -8.1770 -55.9805 322° Northwest  Level Estimated
02:33PM -8.0871 -56.0527 322° Northwest  Level Estimated
02:34PM -7.9971 -56.1248 322° Northwest  Level Estimated
02:35PM -7.9071 -56.1969 322° Northwest  Level Estimated
02:36PM -7.8171 -56.2690 322° Northwest  Level Estimated
02:37PM -7.7271 -56.3410 322° Northwest  Level Estimated
02:38PM -7.6371 -56.4131 322° Northwest  Level Estimated
02:39PM -7.5470 -56.4850 322° Northwest  Level Estimated
02:40PM -7.4570 -56.5570 322° Northwest  Level Estimated
02:41PM -7.3669 -56.6289 322° Northwest  Level Estimated
02:42PM -7.2769 -56.7008 322° Northwest  Level Estimated
02:43PM -7.1868 -56.7727 322° Northwest  Level Estimated
02:44PM -7.0967 -56.8445 322° Northwest  Level Estimated
02:45PM -7.0066 -56.9164 322° Northwest  Level Estimated
02:46PM -6.9165 -56.9881 322° Northwest  Level Estimated
02:47PM -6.8264 -57.0599 322° Northwest  Level Estimated
02:48PM -6.7362 -57.1316 322° Northwest  Level Estimated
02:49PM -6.6461 -57.2033 322° Northwest  Level Estimated
02:50PM -6.5559 -57.2750 322° Northwest  Level Estimated
02:51PM -6.4657 -57.3467 322° Northwest  Level Estimated
02:52PM -6.3755 -57.4183 322° Northwest  Level Estimated
02:53PM -6.2854 -57.4899 322° Northwest  Level Estimated
02:54PM -6.1952 -57.5615 322° Northwest  Level Estimated
02:55PM -6.1049 -57.6330 322° Northwest  Level Estimated
02:56PM -6.0147 -57.7046 322° Northwest  Level Estimated
02:57PM -5.9245 -57.7761 322° Northwest  Level Estimated
02:58PM -5.8343 -57.8475 322° Northwest  Level Estimated
02:59PM -5.7441 -57.9190 322° Northwest  Level Estimated
03:00PM -5.6538 -57.9905 322° Northwest  Level Estimated
03:01PM -5.5635 -58.0619 322° Northwest  Level Estimated
03:02PM -5.4733 -58.1333 322° Northwest  Level Estimated
03:03PM -5.3830 -58.2046 322° Northwest  Level Estimated
03:04PM -5.2927 -58.2760 322° Northwest  Level Estimated
03:05PM -5.2024 -58.3473 322° Northwest  Level Estimated
03:06PM -5.1121 -58.4186 322° Northwest  Level Estimated
03:07PM -5.0218 -58.4899 322° Northwest  Level Estimated
03:08PM -4.9315 -58.5612 322° Northwest  Level Estimated
03:09PM -4.8412 -58.6324 322° Northwest  Level Estimated
03:10PM -4.7508 -58.7037 322° Northwest  Level Estimated
03:11PM -4.6605 -58.7749 322° Northwest  Level Estimated
03:12PM -4.5701 -58.8461 322° Northwest  Level Estimated
03:13PM -4.4798 -58.9172 322° Northwest  Level Estimated
03:14PM -4.3894 -58.9884 322° Northwest  Level Estimated
03:15PM -4.2991 -59.0595 322° Northwest  Level Estimated
03:16PM -4.2087 -59.1306 322° Northwest  Level Estimated
03:17PM -4.1183 -59.2018 322° Northwest  Level Estimated
03:18PM -4.0279 -59.2729 322° Northwest  Level Estimated
03:19PM -3.9375 -59.3439 322° Northwest  Level Estimated
03:20PM -3.8471 -59.4150 322° Northwest  Level Estimated
03:21PM -3.7567 -59.4860 322° Northwest  Level Estimated
03:22PM -3.6663 -59.5571 322° Northwest  Level Estimated
03:23PM -3.5759 -59.6281 322° Northwest  Level Estimated
03:24PM -3.4855 -59.6991 322° Northwest  Level Estimated
03:25PM -3.3951 -59.7701 322° Northwest  Level Estimated
03:26PM -3.3046 -59.8410 322° Northwest  Level Estimated
03:27PM -3.2142 -59.9120 322° Northwest  Level Estimated
03:28PM -3.1237 -59.9829 322° Northwest  Level Estimated
03:29PM -3.0386 -60.0497 322° Northwest  Level Estimated
03:30PM -3.0386 -60.0497 225° Southwest  Level Estimated
03:31PM -3.0386 -60.0497 225° Southwest  Level Estimated
03:32PM -3.0386 -60.0497 225° Southwest  Level Estimated
03:33PM -3.0386 -60.0497 225° Southwest  Level Estimated
03:34PM -3.0386 -60.0497 225° Southwest  Level Estimated
03:35PM -3.0386 -60.0497 225° Southwest  Level Estimated
03:36PM -3.0386 -60.0497 225° Southwest  Level Estimated
03:37PM -3.0386 -60.0497 225° Southwest  Level Estimated
03:38PM -3.0386 -60.0497 225° Southwest  Level Estimated
03:39PM -3.0386 -60.0497 225° Southwest  Level Estimated
03:40PM -3.0386 -60.0497 225° Southwest  Level Estimated
03:41PM -3.0386 -60.0497 225° Southwest  Level Estimated
03:42PM -3.0386 -60.0497 225° Southwest  Level Estimated
03:43PM -3.0386 -60.0497 225° Southwest  Level Estimated
03:44PM -3.0386 -60.0497 225° Southwest  Level Estimated
03:45PM -3.0386 -60.0497 225° Southwest  Level Estimated